Aviation Digital Data Service (ADDS)

Output produced by METARs form (0839 UTC 24 September 2017)
found at http://aviationweather.gov/adds/metars/
 
KJAX 240520Z 2406/2506 04007KT P6SM SCT025 SCT100 
     FM241500 05015KT P6SM BKN040 
     FM250200 02007KT P6SM SCT200